Time;durP1;ratioP1;P1;durP2;ratioP2;P2;SDS_P1;SDS_P2;PMS_P1;PMS_P2;Temp;Humidity;BMP_temperature;BMP_pressure;BME280_temperature;BME280_humidity;BME280_pressure;Samples;Min_cycle;Max_cycle;Signal;HPM_P1;HPM_P2
2022/03/22 00:00:33;;;;;;;39.78;27.77;;;9.70;99.90;;;;;;4962869;28;20050;-66
2022/03/22 00:02:58;;;;;;;41.55;28.88;;;9.70;99.90;;;;;;4971445;28;20050;-66
2022/03/22 00:05:25;;;;;;;36.63;28.50;;;9.60;99.90;;;;;;4989296;28;20042;-66
2022/03/22 00:07:51;;;;;;;39.22;27.30;;;9.60;99.90;;;;;;4972586;28;20046;-66
2022/03/22 00:10:17;;;;;;;39.30;29.00;;;9.60;99.90;;;;;;4974457;28;20050;-66
2022/03/22 00:12:43;;;;;;;37.78;28.75;;;9.60;99.90;;;;;;4973886;28;20047;-66
2022/03/22 00:15:10;;;;;;;40.67;28.52;;;9.60;99.90;;;;;;4957758;28;20415;-66
2022/03/22 00:17:36;;;;;;;47.63;29.00;;;9.60;99.90;;;;;;4954855;28;20055;-66
2022/03/22 00:20:04;;;;;;;42.17;30.15;;;9.60;99.90;;;;;;4953052;28;20062;-66
2022/03/22 00:22:29;;;;;;;48.15;32.13;;;9.60;99.90;;;;;;4953459;28;20047;-66
2022/03/22 00:24:55;;;;;;;43.53;30.77;;;9.50;99.90;;;;;;4973824;28;20567;-65
2022/03/22 00:27:21;;;;;;;41.90;29.58;;;9.50;99.90;;;;;;4973355;28;20121;-66
2022/03/22 00:29:46;;;;;;;48.92;28.88;;;9.50;99.90;;;;;;4974199;28;20121;-65
2022/03/22 00:32:12;;;;;;;43.85;31.45;;;9.50;99.90;;;;;;4971194;28;20051;-66
2022/03/22 00:34:44;;;;;;;42.03;29.15;;;9.50;99.90;;;;;;4986948;28;20780;-66
2022/03/22 00:37:17;;;;;;;44.63;30.17;;;9.50;99.90;;;;;;4992596;28;20054;-66
2022/03/22 00:39:44;;;;;;;;;;;9.50;99.90;;;;;;4960073;28;20493;-66
2022/03/22 00:42:10;;;;;;;46.28;31.23;;;9.50;99.90;;;;;;4954387;28;19965;-66
2022/03/22 00:44:37;;;;;;;42.60;29.92;;;9.50;99.90;;;;;;4954200;28;20039;-65
2022/03/22 00:47:04;;;;;;;41.63;30.25;;;9.50;99.90;;;;;;4953147;28;20447;-66
2022/03/22 00:49:32;;;;;;;41.30;28.85;;;9.50;99.90;;;;;;4953855;28;20055;-66
2022/03/22 00:51:59;;;;;;;44.90;29.17;;;9.40;99.90;;;;;;4953840;28;20383;-66
2022/03/22 00:54:25;;;;;;;41.20;28.83;;;9.50;99.90;;;;;;4954598;28;20039;-65
2022/03/22 00:56:53;;;;;;;41.47;30.40;;;9.40;99.90;;;;;;4973724;28;20479;-66
2022/03/22 01:02:03;;;;;;;39.13;30.17;;;9.40;99.90;;;;;;4973187;28;20050;-66
2022/03/22 01:04:29;;;;;;;40.05;29.45;;;9.40;99.90;;;;;;4985937;28;20768;-66
2022/03/22 01:06:54;;;;;;;45.10;31.42;;;9.40;99.90;;;;;;4993233;28;20039;-65
2022/03/22 01:09:20;;;;;;;39.42;30.23;;;9.40;99.90;;;;;;4952452;28;20055;-66
2022/03/22 01:11:47;;;;;;;43.03;31.20;;;9.40;99.90;;;;;;4954468;28;20047;-65
2022/03/22 01:14:12;;;;;;;40.80;32.10;;;9.30;99.90;;;;;;4953388;28;20056;-66
2022/03/22 01:16:39;;;;;;;43.47;33.70;;;9.30;99.90;;;;;;4952392;28;20047;-66
2022/03/22 01:19:05;;;;;;;42.10;31.60;;;9.30;99.90;;;;;;4954430;28;20100;-66
2022/03/22 01:21:31;;;;;;;45.67;32.88;;;9.30;99.90;;;;;;4983091;28;20390;-66
2022/03/22 01:23:58;;;;;;;43.80;30.98;;;9.30;99.90;;;;;;4953784;28;20051;-66
2022/03/22 01:26:24;;;;;;;39.08;30.73;;;9.30;99.90;;;;;;4953944;28;20380;-66
2022/03/22 01:28:50;;;;;;;38.80;30.10;;;9.30;99.90;;;;;;4954462;28;20055;-66
2022/03/22 01:31:16;;;;;;;46.28;33.42;;;9.20;99.90;;;;;;4951952;28;20040;-65
2022/03/22 01:33:42;;;;;;;38.90;29.67;;;9.20;99.90;;;;;;4971827;28;20100;-65
2022/03/22 01:36:08;;;;;;;43.20;32.15;;;9.10;99.90;;;;;;4977555;28;20043;-65
2022/03/22 01:38:33;;;;;;;50.28;33.55;;;9.10;99.90;;;;;;4972173;28;20054;-65
2022/03/22 01:40:59;;;;;;;46.80;32.47;;;9.10;99.90;;;;;;4988428;28;20094;-65
2022/03/22 01:43:24;;;;;;;42.65;33.13;;;9.10;99.90;;;;;;4991669;28;20046;-65
2022/03/22 01:45:50;;;;;;;47.50;33.45;;;9.10;99.90;;;;;;4978767;28;20078;-65
2022/03/22 01:48:16;;;;;;;47.72;34.47;;;9.10;99.90;;;;;;4972812;28;20043;-65
2022/03/22 01:50:42;;;;;;;47.00;33.88;;;9.10;99.90;;;;;;4972490;28;20054;-65
2022/03/22 01:53:10;;;;;;;44.45;31.70;;;9.00;99.90;;;;;;4953705;28;20042;-65
2022/03/22 01:55:36;;;;;;;45.95;34.55;;;9.10;99.90;;;;;;4953189;28;20547;-66
2022/03/22 01:58:02;;;;;;;46.30;33.70;;;9.10;99.90;;;;;;4954300;28;20150;-66
2022/03/22 02:00:27;;;;;;;44.50;33.65;;;9.00;99.90;;;;;;4972182;28;20402;-65
2022/03/22 02:05:52;;;;;;;49.08;32.95;;;9.00;99.90;;;;;;4957751;28;20043;-66
2022/03/22 02:08:19;;;;;;;46.38;31.95;;;9.00;99.90;;;;;;4957060;28;20097;-65
2022/03/22 02:10:45;;;;;;;46.33;34.03;;;9.00;99.90;;;;;;4953525;28;20043;-66
2022/03/22 02:13:12;;;;;;;56.58;33.58;;;8.90;99.90;;;;;;4952935;28;20043;-65
2022/03/22 02:15:37;;;;;;;47.60;35.28;;;9.00;99.90;;;;;;4963255;28;20043;-66
2022/03/22 02:18:03;;;;;;;49.10;34.35;;;8.90;99.90;;;;;;4972809;28;20047;-66
2022/03/22 02:20:29;;;;;;;45.90;32.15;;;8.90;99.90;;;;;;4971381;28;20041;-65
2022/03/22 02:23:04;;;;;;;45.08;32.35;;;8.90;99.90;;;;;;4972134;28;20046;-65
2022/03/22 02:25:30;;;;;;;50.42;35.38;;;8.90;99.90;;;;;;4955454;28;20164;-65
2022/03/22 02:27:55;;;;;;;54.35;35.25;;;8.90;99.90;;;;;;4950514;28;20498;-65
2022/03/22 02:30:22;;;;;;;47.50;33.28;;;8.90;99.90;;;;;;4951463;28;20057;-65
2022/03/22 02:32:52;;;;;;;52.50;33.42;;;8.80;99.90;;;;;;4959209;28;20517;-65
2022/03/22 02:35:19;;;;;;;48.67;35.70;;;8.80;99.90;;;;;;4985084;28;20133;-66
2022/03/22 02:37:46;;;;;;;47.28;34.35;;;8.80;99.90;;;;;;4971829;28;20058;-66
2022/03/22 02:40:13;;;;;;;51.85;35.20;;;8.80;99.90;;;;;;4980199;28;20121;-65
2022/03/22 02:42:43;;;;;;;49.60;34.78;;;8.80;99.90;;;;;;4977409;28;20055;-65
2022/03/22 02:45:09;;;;;;;52.00;33.53;;;8.80;99.90;;;;;;4983521;28;20047;-65
2022/03/22 02:47:35;;;;;;;49.35;34.55;;;8.80;99.90;;;;;;4951263;28;20051;-65
2022/03/22 02:50:00;;;;;;;48.30;34.13;;;8.80;99.90;;;;;;4955014;28;20059;-65
2022/03/22 02:52:27;;;;;;;45.95;33.55;;;8.80;99.90;;;;;;4970906;28;20118;-66
2022/03/22 02:54:52;;;;;;;47.17;35.58;;;8.80;99.90;;;;;;4969726;28;20126;-65
2022/03/22 02:57:18;;;;;;;50.88;34.92;;;8.80;99.90;;;;;;4952118;28;20126;-65
2022/03/22 02:59:43;;;;;;;47.40;33.83;;;8.70;99.90;;;;;;4951279;29;20070;-65
2022/03/22 03:02:09;;;;;;;48.60;35.65;;;8.80;99.90;;;;;;4950712;28;20118;-65
2022/03/22 03:04:35;;;;;;;46.90;33.78;;;8.80;99.90;;;;;;4951940;28;20047;-65
2022/03/22 03:07:00;;;;;;;47.50;33.15;;;8.80;99.90;;;;;;4951025;28;20055;-65
2022/03/22 03:09:26;;;;;;;48.90;35.67;;;8.80;99.90;;;;;;4950694;28;20092;-65
2022/03/22 03:11:51;;;;;;;45.00;33.78;;;8.80;99.90;;;;;;4952276;28;20073;-65
2022/03/22 03:17:01;;;;;;;47.50;35.92;;;8.90;99.90;;;;;;4950618;28;20051;-65
2022/03/22 03:19:27;;;;;;;47.28;34.45;;;8.90;99.90;;;;;;4954510;28;20043;-65
2022/03/22 03:21:52;;;;;;;57.67;33.75;;;8.90;99.90;;;;;;4970832;28;20129;-65
2022/03/22 03:24:18;;;;;;;43.67;33.00;;;8.90;99.90;;;;;;4975421;28;20117;-65
2022/03/22 03:26:43;;;;;;;47.67;35.45;;;8.90;99.90;;;;;;4980906;28;20403;-65
2022/03/22 03:29:09;;;;;;;49.30;34.60;;;8.90;99.90;;;;;;4969016;28;20078;-65
2022/03/22 03:31:35;;;;;;;44.33;33.42;;;8.90;99.90;;;;;;4970261;28;20047;-65
2022/03/22 03:34:01;;;;;;;47.35;34.25;;;8.90;99.90;;;;;;4968994;28;20221;-65
2022/03/22 03:36:26;;;;;;;45.05;34.30;;;8.90;99.90;;;;;;4970382;28;20550;-65
2022/03/22 03:38:52;;;;;;;50.33;34.00;;;8.90;99.90;;;;;;4969906;28;20641;-65
2022/03/22 03:47:03;;;;;;;49.95;35.25;;;8.80;99.90;;;;;;4982795;28;20502;-65
2022/03/22 03:47:07;;;;;;;48.75;36.15;;;8.90;99.90;;;;;;4975719;28;20049;-65
2022/03/22 03:49:46;;;;;;;45.85;33.88;;;8.90;99.90;;;;;;4974738;28;20542;-65
2022/03/22 03:52:18;;;;;;;45.08;34.40;;;8.80;99.90;;;;;;4972638;28;20414;-65
2022/03/22 03:54:45;;;;;;;51.47;35.50;;;8.90;99.90;;;;;;4984883;28;20042;-65
2022/03/22 03:57:12;;;;;;;44.13;33.58;;;8.80;99.90;;;;;;4992368;28;20101;-65
2022/03/22 03:59:38;;;;;;;52.67;36.00;;;8.80;99.90;;;;;;4974770;28;20487;-65
2022/03/22 04:02:06;;;;;;;47.10;34.40;;;8.80;99.90;;;;;;4972931;28;20054;-65
2022/03/22 04:04:32;;;;;;;46.65;35.50;;;8.90;99.90;;;;;;4973889;28;20121;-65
2022/03/22 04:06:58;;;;;;;55.95;34.38;;;8.90;99.90;;;;;;4975467;28;20438;-65
2022/03/22 04:09:23;;;;;;;46.55;34.53;;;8.80;99.90;;;;;;4954989;28;20051;-65
2022/03/22 04:11:49;;;;;;;48.60;34.75;;;8.90;99.90;;;;;;4955449;28;20051;-65
2022/03/22 04:14:15;;;;;;;51.35;35.50;;;8.90;99.90;;;;;;4953730;28;20074;-66
2022/03/22 04:16:42;;;;;;;48.67;36.00;;;8.80;99.90;;;;;;4955672;28;20039;-65
2022/03/22 04:19:10;;;;;;;46.97;36.03;;;8.80;99.90;;;;;;4955054;28;20039;-65
2022/03/22 04:21:37;;;;;;;49.70;35.40;;;8.70;99.90;;;;;;4972020;28;20038;-65
2022/03/22 04:24:08;;;;;;;45.70;35.50;;;8.70;99.90;;;;;;4975715;28;20055;-65
2022/03/22 04:26:35;;;;;;;43.35;33.38;;;8.70;99.90;;;;;;4973138;28;20059;-65
2022/03/22 04:32:46;;;;;;;51.47;34.60;;;8.60;99.90;;;;;;4974448;28;20521;-65
2022/03/22 04:34:42;;;;;;;49.47;34.35;;;8.60;99.90;;;;;;4969087;28;20561;-65
2022/03/22 04:37:12;;;;;;;52.05;36.28;;;8.50;99.90;;;;;;4961772;28;20117;-65
2022/03/22 04:39:43;;;;;;;46.60;35.70;;;8.60;99.90;;;;;;4961715;28;20054;-66
2022/03/22 04:42:09;;;;;;;43.85;34.25;;;8.60;99.90;;;;;;4983915;28;20043;-65
2022/03/22 04:44:35;;;;;;;51.80;34.15;;;8.70;99.90;;;;;;4973311;28;20038;-65
2022/03/22 04:47:01;;;;;;;50.03;35.40;;;8.60;99.90;;;;;;4973458;28;20046;-66
2022/03/22 04:49:27;;;;;;;52.10;36.95;;;8.70;99.90;;;;;;4970952;28;20481;-65
2022/03/22 04:57:23;;;;;;;47.00;34.67;;;8.70;99.90;;;;;;4957659;28;20101;-66
2022/03/22 04:59:49;;;;;;;51.03;35.33;;;8.60;99.90;;;;;;4954431;28;20071;-65
2022/03/22 05:02:15;;;;;;;49.20;36.35;;;8.60;99.90;;;;;;4961484;28;20398;-65
2022/03/22 05:04:41;;;;;;;48.92;36.05;;;8.50;99.90;;;;;;4973728;28;20046;-65
2022/03/22 05:07:06;;;;;;;49.55;35.33;;;8.50;99.90;;;;;;4974034;28;20401;-66
2022/03/22 05:09:32;;;;;;;54.53;37.10;;;8.50;99.90;;;;;;4969661;28;20073;-65
2022/03/22 05:11:59;;;;;;;44.80;34.38;;;8.50;99.90;;;;;;4954669;28;20047;-65
2022/03/22 05:14:25;;;;;;;47.70;35.08;;;8.50;99.90;;;;;;4953082;28;20125;-65
2022/03/22 05:16:51;;;;;;;49.17;36.47;;;8.50;99.90;;;;;;4966691;28;20453;-65
2022/03/22 05:19:18;;;;;;;51.60;35.50;;;8.40;99.90;;;;;;4965031;28;20042;-65
2022/03/22 05:21:44;;;;;;;52.45;36.55;;;8.40;99.90;;;;;;4984457;28;20082;-65
2022/03/22 05:24:11;;;;;;;52.00;36.85;;;8.40;99.90;;;;;;4968492;28;20046;-65
2022/03/22 05:26:37;;;;;;;50.20;36.50;;;8.40;99.90;;;;;;4992332;28;20430;-65
2022/03/22 05:29:07;;;;;;;51.22;35.55;;;8.30;99.90;;;;;;4976217;28;20046;-66
2022/03/22 05:31:33;;;;;;;44.85;35.22;;;8.30;99.90;;;;;;4970683;28;20077;-65
2022/03/22 05:33:59;;;;;;;48.58;34.15;;;8.30;99.90;;;;;;4972906;28;20108;-65
2022/03/22 05:36:25;;;;;;;50.17;36.35;;;8.20;99.90;;;;;;4972310;28;20050;-65
2022/03/22 05:38:52;;;;;;;49.10;34.83;;;8.20;99.90;;;;;;4973310;28;20047;-65
2022/03/22 05:41:18;;;;;;;47.35;35.58;;;8.20;99.90;;;;;;4976246;28;20043;-65
2022/03/22 05:43:43;;;;;;;54.20;34.72;;;8.20;99.90;;;;;;4972441;28;20050;-65
2022/03/22 05:46:09;;;;;;;51.60;35.65;;;8.20;99.90;;;;;;4971455;28;20047;-66
2022/03/22 05:48:38;;;;;;;52.70;35.85;;;8.20;99.90;;;;;;4972532;28;20097;-65
2022/03/22 05:51:04;;;;;;;49.58;34.97;;;8.10;99.90;;;;;;4972430;28;20517;-65
2022/03/22 05:53:30;;;;;;;62.92;38.10;;;8.10;99.90;;;;;;4976161;28;20046;-65
2022/03/22 05:55:55;;;;;;;47.50;35.47;;;8.10;99.90;;;;;;4984590;28;20042;-65
2022/03/22 05:58:21;;;;;;;52.35;37.38;;;8.10;99.90;;;;;;4971612;28;20046;-66
2022/03/22 06:00:46;;;;;;;50.75;37.20;;;8.00;99.90;;;;;;4970463;28;20050;-65
2022/03/22 06:03:12;;;;;;;55.58;37.60;;;8.00;99.90;;;;;;4955099;28;20392;-65
2022/03/22 06:05:38;;;;;;;49.03;35.85;;;8.00;99.90;;;;;;4951470;29;20085;-65
2022/03/22 06:08:04;;;;;;;56.22;37.33;;;8.00;99.90;;;;;;4952701;28;20097;-65
2022/03/22 06:10:30;;;;;;;49.72;36.60;;;8.10;99.90;;;;;;4952771;28;20055;-65
2022/03/22 06:12:57;;;;;;;54.58;37.63;;;8.00;99.90;;;;;;4953171;28;20051;-65
2022/03/22 06:15:30;;;;;;;52.45;37.05;;;7.90;99.90;;;;;;4952863;28;20101;-66
2022/03/22 06:18:04;;;;;;;45.80;36.63;;;8.00;99.90;;;;;;4951600;28;20082;-66
2022/03/22 06:20:33;;;;;;;51.78;37.45;;;8.00;99.90;;;;;;4960936;28;20047;-65
2022/03/22 06:23:01;;;;;;;53.10;35.88;;;8.10;99.90;;;;;;4953445;28;20043;-65
2022/03/22 06:25:27;;;;;;;47.75;35.78;;;8.20;99.90;;;;;;4990382;28;20137;-66
2022/03/22 06:27:54;;;;;;;50.65;38.35;;;8.20;99.90;;;;;;4976020;28;20039;-65
2022/03/22 06:30:20;;;;;;;54.60;39.08;;;8.20;99.90;;;;;;4952253;28;20094;-65
2022/03/22 06:32:50;;;;;;;52.22;37.38;;;8.30;99.90;;;;;;4952228;28;20089;-65
2022/03/22 06:35:23;;;;;;;54.53;37.50;;;8.30;99.90;;;;;;4950524;28;20106;-65
2022/03/22 06:37:50;;;;;;;54.88;38.38;;;8.30;99.90;;;;;;4952962;28;20053;-65
2022/03/22 06:40:17;;;;;;;53.70;40.22;;;8.30;99.90;;;;;;5001096;28;20050;-65
2022/03/22 06:42:44;;;;;;;57.35;41.45;;;8.30;99.90;;;;;;4991452;28;20039;-65
2022/03/22 06:45:13;;;;;;;49.45;37.08;;;8.30;99.90;;;;;;4970584;28;20047;-65
2022/03/22 06:47:40;;;;;;;52.70;39.42;;;8.30;99.90;;;;;;4968779;28;20101;-65
2022/03/22 06:50:08;;;;;;;54.30;38.80;;;8.40;99.90;;;;;;4971517;28;20059;-65
2022/03/22 06:52:34;;;;;;;52.17;39.20;;;8.40;99.90;;;;;;4969354;28;20450;-65
2022/03/22 06:55:01;;;;;;;54.78;38.80;;;8.50;99.90;;;;;;4989271;28;20406;-65
2022/03/22 06:57:28;;;;;;;52.75;39.08;;;8.50;99.90;;;;;;4990966;28;20046;-65
2022/03/22 06:59:54;;;;;;;56.50;40.95;;;8.60;99.90;;;;;;4953712;28;20066;-65
2022/03/22 07:02:20;;;;;;;60.00;42.42;;;8.70;99.90;;;;;;4952041;28;20047;-65
2022/03/22 07:04:46;;;;;;;51.33;37.25;;;8.60;99.90;;;;;;4952736;28;20055;-65
2022/03/22 07:07:12;;;;;;;53.88;39.92;;;8.80;99.90;;;;;;4951983;28;20090;-65
2022/03/22 07:09:38;;;;;;;61.05;41.45;;;8.90;99.90;;;;;;4966230;28;20086;-65
2022/03/22 07:12:03;;;;;;;60.80;38.97;;;8.90;99.90;;;;;;4970319;28;20446;-65
2022/03/22 07:14:29;;;;;;;60.50;41.70;;;9.00;99.90;;;;;;4972286;28;20045;-65
2022/03/22 07:16:55;;;;;;;57.03;39.75;;;9.10;99.90;;;;;;4977079;28;20473;-65
2022/03/22 07:19:22;;;;;;;55.90;41.15;;;9.20;99.90;;;;;;4970747;28;20105;-65
2022/03/22 07:21:49;;;;;;;61.50;39.05;;;9.30;99.90;;;;;;4959059;28;20078;-65
2022/03/22 07:24:20;;;;;;;53.88;39.67;;;9.30;99.90;;;;;;4970814;28;20192;-65
2022/03/22 07:26:46;;;;;;;56.25;41.15;;;9.40;99.90;;;;;;4975008;28;20050;-65
2022/03/22 07:29:13;;;;;;;58.97;39.05;;;9.50;99.90;;;;;;4956034;28;20059;-65
2022/03/22 07:31:41;;;;;;;54.75;38.60;;;9.50;99.90;;;;;;4958551;28;20043;-65
2022/03/22 07:34:11;;;;;;;57.95;40.03;;;9.50;99.90;;;;;;4958235;28;20614;-65
2022/03/22 07:36:39;;;;;;;57.30;40.25;;;9.60;99.90;;;;;;4956517;28;20097;-66
2022/03/22 07:39:06;;;;;;;52.00;39.55;;;9.60;99.90;;;;;;4958687;28;20051;-65
2022/03/22 07:41:36;;;;;;;60.67;39.47;;;9.70;99.90;;;;;;4996600;28;20104;-65
2022/03/22 07:44:03;;;;;;;55.05;40.50;;;9.70;99.90;;;;;;4996771;28;20054;-65
2022/03/22 07:46:29;;;;;;;52.50;39.97;;;9.80;99.90;;;;;;4975260;28;20046;-65
2022/03/22 07:48:55;;;;;;;57.67;40.13;;;9.80;99.90;;;;;;4977895;28;20057;-65
2022/03/22 07:54:05;;;;;;;54.17;39.15;;;9.90;99.90;;;;;;4991422;28;20054;-65
2022/03/22 07:56:30;;;;;;;58.80;41.38;;;9.90;99.90;;;;;;4956982;28;20054;-65
2022/03/22 07:58:57;;;;;;;60.38;37.78;;;10.00;99.90;;;;;;4958609;28;20047;-65
2022/03/22 08:01:27;;;;;;;51.88;36.30;;;10.10;99.90;;;;;;4956045;28;20411;-66
2022/03/22 08:03:52;;;;;;;51.33;36.63;;;10.10;99.90;;;;;;4958449;28;20051;-65
2022/03/22 08:06:18;;;;;;;60.60;38.80;;;10.10;99.90;;;;;;4960058;28;20058;-65
2022/03/22 08:08:45;;;;;;;53.58;37.25;;;10.20;99.90;;;;;;4958390;28;20462;-65
2022/03/22 08:11:11;;;;;;;53.08;35.10;;;10.30;99.90;;;;;;4957835;28;20058;-65
2022/03/22 08:13:38;;;;;;;53.95;36.00;;;10.40;99.90;;;;;;4956676;28;20043;-65
2022/03/22 08:16:04;;;;;;;53.30;36.72;;;10.70;99.90;;;;;;4958360;28;20043;-65
2022/03/22 08:18:30;;;;;;;45.13;35.40;;;10.70;99.90;;;;;;4956799;28;20039;-65
2022/03/22 08:20:56;;;;;;;51.42;37.88;;;10.80;99.90;;;;;;4969114;28;20097;-65
2022/03/22 08:23:21;;;;;;;51.95;36.83;;;10.90;99.90;;;;;;4980344;28;20084;-65
2022/03/22 08:25:49;;;;;;;58.25;36.50;;;10.90;99.90;;;;;;4993751;28;20057;-65
2022/03/22 08:28:15;;;;;;;50.78;37.00;;;11.00;99.90;;;;;;4987354;28;20082;-65
2022/03/22 08:30:42;;;;;;;50.67;35.10;;;11.20;99.90;;;;;;4973828;28;20089;-65
2022/03/22 08:33:09;;;;;;;48.97;36.60;;;11.30;99.90;;;;;;4973906;28;20086;-65
2022/03/22 08:35:36;;;;;;;47.83;34.67;;;11.40;99.90;;;;;;4969934;28;20101;-65
2022/03/22 08:38:02;;;;;;;48.00;37.55;;;11.70;99.90;;;;;;4968233;28;20099;-66
2022/03/22 08:40:28;;;;;;;50.92;35.35;;;11.90;99.90;;;;;;4975124;28;20430;-65
2022/03/22 08:42:56;;;;;;;52.78;36.90;;;12.10;99.90;;;;;;4989177;28;20092;-65
2022/03/22 08:45:23;;;;;;;46.08;35.72;;;12.40;99.90;;;;;;4970298;28;20506;-65
2022/03/22 08:47:51;;;;;;;46.88;35.75;;;12.70;99.90;;;;;;4974043;28;20049;-65
2022/03/22 08:50:21;;;;;;;49.38;35.83;;;13.00;99.90;;;;;;4973836;28;20122;-65
2022/03/22 08:52:48;;;;;;;48.92;35.92;;;13.10;99.90;;;;;;4971477;28;20046;-65
2022/03/22 08:55:16;;;;;;;47.63;35.63;;;13.60;99.90;;;;;;4973470;28;20424;-65
2022/03/22 08:57:44;;;;;;;46.33;35.15;;;14.00;99.90;;;;;;4973960;28;20043;-66
2022/03/22 09:00:11;;;;;;;46.15;33.80;;;14.40;99.90;;;;;;4971422;28;20053;-66
2022/03/22 09:02:38;;;;;;;48.45;32.92;;;14.70;99.90;;;;;;4953527;28;20463;-65
2022/03/22 09:07:50;;;;;;;46.30;33.60;;;14.90;99.90;;;;;;4969844;28;20047;-65
2022/03/22 09:10:18;;;;;;;49.30;34.50;;;14.70;99.90;;;;;;4970516;28;20051;-66
2022/03/22 09:12:44;;;;;;;44.85;35.83;;;14.50;99.90;;;;;;4973422;28;20446;-65
2022/03/22 09:15:11;;;;;;;51.47;36.63;;;14.10;99.90;;;;;;4973263;28;20047;-66
2022/03/22 09:17:37;;;;;;;50.60;35.75;;;14.00;99.90;;;;;;4966896;28;20483;-65
2022/03/22 09:20:03;;;;;;;42.10;35.20;;;13.90;99.90;;;;;;4972211;28;20082;-65
2022/03/22 09:22:28;;;;;;;46.38;33.35;;;13.90;99.90;;;;;;4971881;28;20042;-65
2022/03/22 09:24:54;;;;;;;49.45;34.40;;;13.90;99.90;;;;;;4973686;28;20049;-65
2022/03/22 09:27:21;;;;;;;44.30;33.03;;;14.50;99.90;;;;;;4970389;28;20089;-65
2022/03/22 09:29:47;;;;;;;43.92;33.90;;;15.10;99.90;;;;;;4953210;28;20054;-65
2022/03/22 09:32:13;;;;;;;48.13;34.50;;;15.80;99.90;;;;;;4954122;28;20047;-65
2022/03/22 09:34:41;;;;;;;43.28;31.83;;;16.10;99.90;;;;;;4951644;28;20077;-65
2022/03/22 09:37:07;;;;;;;48.85;33.78;;;16.60;99.90;;;;;;4957884;28;20039;-66
2022/03/22 09:39:36;;;;;;;46.58;35.35;;;16.90;99.90;;;;;;4959785;28;20042;-66
2022/03/22 09:42:03;;;;;;;40.83;31.50;;;17.00;99.90;;;;;;4983336;28;20062;-65
2022/03/22 09:44:29;;;;;;;45.13;34.70;;;17.50;99.90;;;;;;4972285;28;20125;-66
2022/03/22 09:46:56;;;;;;;42.95;32.10;;;17.80;99.90;;;;;;4972738;28;20506;-66
2022/03/22 09:49:22;;;;;;;44.47;32.83;;;17.90;99.90;;;;;;4971763;28;20058;-66
2022/03/22 09:51:48;;;;;;;47.25;33.45;;;18.30;99.90;;;;;;4966087;28;20039;-66
2022/03/22 09:54:19;;;;;;;37.83;30.83;;;18.20;99.90;;;;;;4953433;28;20402;-66
2022/03/22 09:56:46;;;;;;;45.30;35.08;;;18.70;99.90;;;;;;4962457;28;20054;-66
2022/03/22 09:59:14;;;;;;;47.55;33.53;;;18.60;98.90;;;;;;4972772;28;20057;-66
2022/03/22 10:01:40;;;;;;;39.45;31.63;;;18.70;99.90;;;;;;4968172;28;20530;-66
2022/03/22 10:04:07;;;;;;;44.42;32.22;;;18.90;98.80;;;;;;4970581;28;20054;-65
2022/03/22 10:06:34;;;;;;;45.90;33.60;;;18.80;99.00;;;;;;4978356;28;20042;-65
2022/03/22 10:09:01;;;;;;;44.47;32.25;;;18.60;99.20;;;;;;4992037;28;20082;-66
2022/03/22 10:11:43;;;;;;;41.17;31.42;;;18.50;99.90;;;;;;4951479;28;20050;-65
2022/03/22 10:14:10;;;;;;;42.17;30.25;;;18.50;99.50;;;;;;4953490;28;20051;-65
2022/03/22 10:16:50;;;;;;;44.47;29.73;;;18.30;99.90;;;;;;4951829;28;20057;-66
2022/03/22 10:19:26;;;;;;;39.08;29.17;;;18.30;99.70;;;;;;4967819;28;20053;-66
2022/03/22 10:21:53;;;;;;;43.70;32.17;;;18.40;99.80;;;;;;4959931;28;20137;-66
2022/03/22 10:24:20;;;;;;;43.28;32.05;;;18.40;99.70;;;;;;4951986;28;20047;-66
2022/03/22 10:26:47;;;;;;;44.22;31.95;;;18.30;99.90;;;;;;4952949;28;20778;-66
2022/03/22 10:29:16;;;;;;;41.00;31.20;;;18.30;99.90;;;;;;4959585;28;20141;-65
2022/03/22 10:31:43;;;;;;;41.60;30.98;;;18.30;99.90;;;;;;4971231;28;20047;-66
2022/03/22 10:34:13;;;;;;;42.03;31.02;;;18.30;99.90;;;;;;4972073;28;20146;-65
2022/03/22 10:36:41;;;;;;;32.92;27.55;;;18.40;99.90;;;;;;4979755;28;20623;-65
2022/03/22 10:39:11;;;;;;;47.80;30.60;;;18.50;99.90;;;;;;4966112;28;20055;-65
2022/03/22 10:41:45;;;;;;;35.75;27.05;;;18.50;99.90;;;;;;4952115;28;20110;-65
2022/03/22 10:44:13;;;;;;;45.53;32.15;;;18.60;99.90;;;;;;4953185;28;20057;-65
2022/03/22 10:46:42;;;;;;;39.60;27.30;;;18.60;99.90;;;;;;4951504;28;20778;-66
2022/03/22 10:49:10;;;;;;;38.97;28.63;;;18.60;99.00;;;;;;4950888;28;20050;-66
2022/03/22 10:51:42;;;;;;;38.03;29.50;;;18.70;99.10;;;;;;4952370;28;20053;-66
2022/03/22 10:54:12;;;;;;;44.13;29.90;;;18.90;99.30;;;;;;4950994;28;20123;-66
2022/03/22 10:57:01;;;;;;;46.35;30.83;;;18.90;98.90;;;;;;4966992;28;20494;-66
2022/03/22 10:59:27;;;;;;;34.95;26.85;;;19.00;98.50;;;;;;4966972;28;20147;-66
2022/03/22 11:01:55;;;;;;;37.95;28.58;;;19.00;99.00;;;;;;4970438;28;20130;-66
2022/03/22 11:04:22;;;;;;;39.70;29.08;;;19.00;98.30;;;;;;4971585;28;20066;-66
2022/03/22 11:06:48;;;;;;;38.60;26.83;;;19.10;98.10;;;;;;4966675;28;20050;-65
2022/03/22 11:09:18;;;;;;;33.15;23.40;;;19.40;98.10;;;;;;4966311;28;20054;-66
2022/03/22 11:11:44;;;;;;;32.90;24.90;;;19.70;97.90;;;;;;4972086;28;20051;-66
2022/03/22 11:14:13;;;;;;;35.45;25.77;;;19.80;97.50;;;;;;4968158;28;20050;-65
2022/03/22 11:16:40;;;;;;;37.33;26.35;;;19.90;97.40;;;;;;4952384;28;20051;-66
2022/03/22 11:19:07;;;;;;;39.67;25.98;;;19.80;96.60;;;;;;4951144;28;20052;-65
2022/03/22 11:21:35;;;;;;;38.33;27.83;;;19.80;96.40;;;;;;4954742;28;20465;-65
2022/03/22 11:24:09;;;;;;;40.58;29.55;;;19.90;96.30;;;;;;4950848;28;20960;-65
2022/03/22 11:26:46;;;;;;;37.42;24.92;;;20.00;96.10;;;;;;4951423;28;20087;-66
2022/03/22 11:29:14;;;;;;;40.35;26.25;;;20.10;96.30;;;;;;4951584;28;20081;-65
2022/03/22 11:31:41;;;;;;;36.05;25.65;;;20.10;95.50;;;;;;4952495;28;20667;-66
2022/03/22 11:34:11;;;;;;;36.75;24.13;;;20.20;95.70;;;;;;4970620;28;20066;-66
2022/03/22 11:36:49;;;;;;;42.50;26.80;;;20.40;95.30;;;;;;4982751;28;20042;-66
2022/03/22 11:42:15;;;;;;;36.58;25.65;;;20.30;94.90;;;;;;4985266;28;20105;-66
2022/03/22 11:42:19;;;;;;;42.08;25.75;;;20.40;94.60;;;;;;4970838;28;20054;-66
2022/03/22 11:44:55;;;;;;;37.25;26.10;;;20.40;94.70;;;;;;4971785;28;20046;-66
2022/03/22 11:47:22;;;;;;;42.35;24.83;;;20.50;94.70;;;;;;4971062;28;20058;-66
2022/03/22 11:50:02;;;;;;;33.00;22.20;;;20.70;94.40;;;;;;4968775;28;20050;-66
2022/03/22 11:52:39;;;;;;;32.83;24.02;;;20.80;95.30;;;;;;4971091;28;20047;-66
2022/03/22 11:55:15;;;;;;;34.53;26.23;;;20.90;94.70;;;;;;4971959;28;20151;-66
2022/03/22 11:57:47;;;;;;;29.92;23.95;;;21.00;94.70;;;;;;4971685;28;20038;-66
2022/03/22 12:00:21;;;;;;;30.58;22.67;;;21.10;94.50;;;;;;4970442;28;20053;-66
2022/03/22 12:02:52;;;;;;;28.27;22.25;;;21.30;94.80;;;;;;4972795;28;20055;-66
2022/03/22 12:05:18;;;;;;;33.15;23.05;;;21.50;94.60;;;;;;4975448;28;20074;-66
2022/03/22 12:07:45;;;;;;;32.72;22.13;;;21.60;93.80;;;;;;4994720;28;20070;-66
2022/03/22 12:10:12;;;;;;;32.20;21.27;;;21.70;94.00;;;;;;4984621;28;20409;-66
2022/03/22 12:12:49;;;;;;;31.10;22.60;;;21.80;93.20;;;;;;4974079;28;20592;-66
2022/03/22 12:15:17;;;;;;;33.20;24.75;;;21.90;93.10;;;;;;4971719;28;20046;-66
2022/03/22 12:17:44;;;;;;;31.45;20.63;;;22.00;93.00;;;;;;4974220;28;20054;-66
2022/03/22 12:20:12;;;;;;;29.45;21.35;;;21.90;92.60;;;;;;4975066;28;20039;-66
2022/03/22 12:22:43;;;;;;;27.42;22.65;;;22.00;92.70;;;;;;4973889;28;20049;-66
2022/03/22 12:25:20;;;;;;;28.60;21.75;;;22.10;92.20;;;;;;4970130;28;20126;-66
2022/03/22 12:28:09;;;;;;;33.85;22.63;;;22.20;92.00;;;;;;4955256;28;20070;-66
2022/03/22 12:30:43;;;;;;;29.42;21.35;;;22.40;92.50;;;;;;4953884;28;20309;-66
2022/03/22 12:33:21;;;;;;;28.20;22.17;;;22.50;91.80;;;;;;4953602;28;20049;-66
2022/03/22 12:35:51;;;;;;;27.15;20.48;;;22.60;92.00;;;;;;4968937;28;20062;-67
2022/03/22 12:38:17;;;;;;;30.27;19.63;;;22.70;92.40;;;;;;4992710;28;20046;-66
2022/03/22 12:40:43;;;;;;;27.60;21.38;;;22.90;92.30;;;;;;4981813;28;20051;-66
2022/03/22 12:43:12;;;;;;;29.88;21.25;;;22.90;91.70;;;;;;4974291;28;20054;-66
2022/03/22 12:45:42;;;;;;;27.25;21.88;;;22.80;91.80;;;;;;4973024;28;20088;-66
2022/03/22 12:48:07;;;;;;;29.25;21.58;;;22.70;91.00;;;;;;4972705;28;20082;-66
2022/03/22 12:50:33;;;;;;;27.80;20.75;;;22.80;91.50;;;;;;4953725;28;20094;-66
2022/03/22 12:52:59;;;;;;;27.83;19.95;;;22.80;91.40;;;;;;4961835;28;20054;-66
2022/03/22 12:55:27;;;;;;;27.10;20.40;;;22.90;91.50;;;;;;4973428;28;20053;-66
2022/03/22 12:57:56;;;;;;;27.52;17.88;;;22.90;91.40;;;;;;4973959;28;20521;-66
2022/03/22 13:00:33;;;;;;;32.05;21.17;;;23.00;90.50;;;;;;4952094;28;20098;-66